Overview Statistics Trail Chart Weather Telemetry Raw packets
 

This is the latest recevied weather packets stored in our database for station/object KC4JIR. If no packets are shown the sender has not sent any weather packets the latest 10 day(s).

<< 23 24 25 26 27 28 29 >>
Time Temp. Humidity Pressure Rain* Wind** Luminosity Snow
1788459421 34.44° C 61% 1013.9 hPa 0 mm - 691 W/m² -
1788459116 35° C 61% 1013.9 hPa 0 mm - 142 W/m² -
1788458812 35° C 61% 1014.1 hPa 0 mm - 703 W/m² -
1788458506 33.89° C 62% 1013.9 hPa 0 mm - 728 W/m² -
1788458205 33.89° C 64% 1014 hPa 0 mm - 155 W/m² -
1788457905 33.89° C 64% 1014.1 hPa 0 mm - 155 W/m² -
1788457599 35° C 63% 1014.2 hPa 0 mm - 758 W/m² -
1788457294 34.44° C 62% 1014.2 hPa 0 mm - 704 W/m² -
1788456989 33.33° C 62% 1014 hPa 0 mm - 763 W/m² -
1788456686 33.33° C 63% 1014.2 hPa 0 mm - 462 W/m² -
1788456406 33.33° C 64% 1014.3 hPa 0 mm - 152 W/m² -
1788456081 33.33° C 62% 1014.6 hPa 0 mm - 734 W/m² -
1788455781 33.33° C 64% 1014.4 hPa 0 mm - 310 W/m² -
1788455477 34.44° C 62% 1014.8 hPa 0 mm - 396 W/m² -
1788455175 33.89° C 63% 1014.6 hPa 0 mm - 731 W/m² -
1788454871 33.33° C 63% 1014.7 hPa 0 mm - 757 W/m² -
1788454569 32.78° C 66% 1014.8 hPa 0 mm - 805 W/m² -
1788454264 32.22° C 68% 1014.9 hPa 0 mm - 837 W/m² -
1788453959 32.78° C 66% 1015 hPa 0 mm - 193 W/m² -
1788453654 32.78° C 66% 1015.1 hPa 0 mm - 633 W/m² -
1788453349 32.78° C 66% 1015.1 hPa 0 mm - 393 W/m² -
1788453045 33.33° C 65% 1015.3 hPa 0 mm - 215 W/m² -
1788452741 32.78° C 66% 1015.3 hPa 0 mm - 766 W/m² -
1788452437 32.78° C 66% 1015.2 hPa 0 mm - 766 W/m² -
1788451828 32.22° C 68% 1015.3 hPa 0 mm - 819 W/m² -

* Rain latest hour (hover to see other rain measurements)
** Current wind speed in m/s (hover to see current wind gust speed)